sensor_id;sensor_type;location;lat;lon;timestamp;pressure;altitude;pressure_sealevel;temperature;humidity
50550;BME280;36505;52.512;13.460;2023-11-19T00:02:08;101086.97;;;5.56;84.86
50550;BME280;36505;52.512;13.460;2023-11-19T00:04:36;101091.75;;;5.54;84.44
50550;BME280;36505;52.512;13.460;2023-11-19T00:07:03;101082.78;;;5.54;84.41
50550;BME280;36505;52.512;13.460;2023-11-19T00:09:30;101064.81;;;5.53;84.68
50550;BME280;36505;52.512;13.460;2023-11-19T00:11:55;101059.59;;;5.51;84.67
50550;BME280;36505;52.512;13.460;2023-11-19T00:14:21;101056.03;;;5.51;84.71
50550;BME280;36505;52.512;13.460;2023-11-19T00:16:46;101045.56;;;5.48;85.07
50550;BME280;36505;52.512;13.460;2023-11-19T00:19:11;101044.72;;;5.47;84.23
50550;BME280;36505;52.512;13.460;2023-11-19T00:21:37;101043.06;;;5.46;84.84
50550;BME280;36505;52.512;13.460;2023-11-19T00:24:02;101028.63;;;5.46;85.27
50550;BME280;36505;52.512;13.460;2023-11-19T00:26:29;101025.09;;;5.45;85.53
50550;BME280;36505;52.512;13.460;2023-11-19T00:28:55;101022.16;;;5.47;84.71
50550;BME280;36505;52.512;13.460;2023-11-19T00:31:21;101024.28;;;5.45;84.42
50550;BME280;36505;52.512;13.460;2023-11-19T00:33:46;101022.38;;;5.45;84.76
50550;BME280;36505;52.512;13.460;2023-11-19T00:36:12;101013.41;;;5.45;84.47
50550;BME280;36505;52.512;13.460;2023-11-19T00:38:38;101010.03;;;5.43;84.58
50550;BME280;36505;52.512;13.460;2023-11-19T00:41:04;101003.56;;;5.44;84.51
50550;BME280;36505;52.512;13.460;2023-11-19T00:43:29;100998.16;;;5.44;84.63
50550;BME280;36505;52.512;13.460;2023-11-19T00:45:55;100986.63;;;5.42;85.00
50550;BME280;36505;52.512;13.460;2023-11-19T00:48:20;100989.34;;;5.42;84.62
50550;BME280;36505;52.512;13.460;2023-11-19T00:50:45;100980.16;;;5.43;84.67
50550;BME280;36505;52.512;13.460;2023-11-19T00:53:11;100963.88;;;5.43;85.07
50550;BME280;36505;52.512;13.460;2023-11-19T00:55:37;100960.97;;;5.44;85.48
50550;BME280;36505;52.512;13.460;2023-11-19T00:58:02;100957.41;;;5.44;84.73
50550;BME280;36505;52.512;13.460;2023-11-19T01:00:28;100950.28;;;5.43;85.71
50550;BME280;36505;52.512;13.460;2023-11-19T01:02:54;100949.06;;;5.45;85.26
50550;BME280;36505;52.512;13.460;2023-11-19T01:05:20;100934.41;;;5.46;84.68
50550;BME280;36505;52.512;13.460;2023-11-19T01:07:49;100928.13;;;5.46;84.36
50550;BME280;36505;52.512;13.460;2023-11-19T01:10:15;100913.13;;;5.43;83.57
50550;BME280;36505;52.512;13.460;2023-11-19T01:12:43;100919.38;;;5.44;84.03
50550;BME280;36505;52.512;13.460;2023-11-19T01:15:09;100906.84;;;5.43;84.36
50550;BME280;36505;52.512;13.460;2023-11-19T01:17:36;100881.38;;;5.44;83.83
50550;BME280;36505;52.512;13.460;2023-11-19T01:20:02;100860.03;;;5.41;84.37
50550;BME280;36505;52.512;13.460;2023-11-19T01:22:28;100863.41;;;5.43;83.75
50550;BME280;36505;52.512;13.460;2023-11-19T01:24:54;100850.44;;;5.45;84.03
50550;BME280;36505;52.512;13.460;2023-11-19T01:27:19;100842.50;;;5.43;83.70
50550;BME280;36505;52.512;13.460;2023-11-19T01:29:45;100839.59;;;5.45;83.49
50550;BME280;36505;52.512;13.460;2023-11-19T01:32:10;100850.66;;;5.43;83.77
50550;BME280;36505;52.512;13.460;2023-11-19T01:34:37;100854.22;;;5.44;83.26
50550;BME280;36505;52.512;13.460;2023-11-19T01:37:03;100842.50;;;5.43;83.71
50550;BME280;36505;52.512;13.460;2023-11-19T01:39:28;100839.59;;;5.45;84.11
50550;BME280;36505;52.512;13.460;2023-11-19T01:41:54;100841.22;;;5.46;83.34
50550;BME280;36505;52.512;13.460;2023-11-19T01:44:19;100830.16;;;5.47;83.54
50550;BME280;36505;52.512;13.460;2023-11-19T01:46:45;100814.50;;;5.49;83.51
50550;BME280;36505;52.512;13.460;2023-11-19T01:49:15;100804.47;;;5.50;84.27
50550;BME280;36505;52.512;13.460;2023-11-19T01:51:41;100783.59;;;5.50;84.74
50550;BME280;36505;52.512;13.460;2023-11-19T01:54:07;100786.72;;;5.54;84.05
50550;BME280;36505;52.512;13.460;2023-11-19T01:56:33;100767.69;;;5.54;83.85
50550;BME280;36505;52.512;13.460;2023-11-19T01:58:59;100767.69;;;5.54;83.44
50550;BME280;36505;52.512;13.460;2023-11-19T02:01:27;100767.09;;;5.52;83.26
50550;BME280;36505;52.512;13.460;2023-11-19T02:03:55;100770.41;;;5.54;83.37
50550;BME280;36505;52.512;13.460;2023-11-19T02:06:20;100762.69;;;5.51;83.91
50550;BME280;36505;52.512;13.460;2023-11-19T02:08:46;100755.41;;;5.51;84.57
50550;BME280;36505;52.512;13.460;2023-11-19T02:11:12;100743.25;;;5.54;84.94
50550;BME280;36505;52.512;13.460;2023-11-19T02:13:38;100726.75;;;5.55;84.71
50550;BME280;36505;52.512;13.460;2023-11-19T02:16:04;100711.28;;;5.56;84.68
50550;BME280;36505;52.512;13.460;2023-11-19T02:18:30;100677.03;;;5.55;84.34
50550;BME280;36505;52.512;13.460;2023-11-19T02:20:59;100685.81;;;5.57;84.81
50550;BME280;36505;52.512;13.460;2023-11-19T02:23:28;100677.03;;;5.55;84.89
50550;BME280;36505;52.512;13.460;2023-11-19T02:26:05;100680.78;;;5.54;84.45
50550;BME280;36505;52.512;13.460;2023-11-19T02:28:35;100678.91;;;5.54;84.90
50550;BME280;36505;52.512;13.460;2023-11-19T02:31:02;100673.69;;;5.53;84.50
50550;BME280;36505;52.512;13.460;2023-11-19T02:33:29;100670.75;;;5.54;85.09
50550;BME280;36505;52.512;13.460;2023-11-19T02:35:55;100659.06;;;5.54;84.35
50550;BME280;36505;52.512;13.460;2023-11-19T02:38:20;100655.75;;;5.52;84.94
50550;BME280;36505;52.512;13.460;2023-11-19T02:40:47;100652.78;;;5.53;84.41
50550;BME280;36505;52.512;13.460;2023-11-19T02:43:12;100643.59;;;5.54;84.88
50550;BME280;36505;52.512;13.460;2023-11-19T02:45:38;100636.50;;;5.53;84.60
50550;BME280;36505;52.512;13.460;2023-11-19T02:48:04;100619.97;;;5.55;84.38
50550;BME280;36505;52.512;13.460;2023-11-19T02:50:31;100626.47;;;5.54;84.00
50550;BME280;36505;52.512;13.460;2023-11-19T02:52:57;100630.22;;;5.53;84.40
50550;BME280;36505;52.512;13.460;2023-11-19T02:55:23;100620.19;;;5.53;84.84
50550;BME280;36505;52.512;13.460;2023-11-19T02:57:49;100606.41;;;5.55;84.60
50550;BME280;36505;52.512;13.460;2023-11-19T03:00:16;100598.03;;;5.56;84.95
50550;BME280;36505;52.512;13.460;2023-11-19T03:02:42;100588.84;;;5.57;84.81
50550;BME280;36505;52.512;13.460;2023-11-19T03:05:14;100570.06;;;5.56;84.74
50550;BME280;36505;52.512;13.460;2023-11-19T03:07:43;100562.53;;;5.58;85.10
50550;BME280;36505;52.512;13.460;2023-11-19T03:10:10;100569.84;;;5.57;84.87
50550;BME280;36505;52.512;13.460;2023-11-19T03:12:42;100565.47;;;5.56;85.06
50550;BME280;36505;52.512;13.460;2023-11-19T03:15:08;100569.63;;;5.59;84.57
50550;BME280;36505;52.512;13.460;2023-11-19T03:17:38;100565.25;;;5.58;85.10
50550;BME280;36505;52.512;13.460;2023-11-19T03:20:08;100566.91;;;5.59;84.78
50550;BME280;36505;52.512;13.460;2023-11-19T03:22:42;100579.22;;;5.62;84.72
50550;BME280;36505;52.512;13.460;2023-11-19T03:25:08;100574.63;;;5.62;85.15
50550;BME280;36505;52.512;13.460;2023-11-19T03:27:39;100577.13;;;5.64;85.00
50550;BME280;36505;52.512;13.460;2023-11-19T03:30:07;100569.19;;;5.62;85.36
50550;BME280;36505;52.512;13.460;2023-11-19T03:32:34;100576.66;;;5.67;85.08
50550;BME280;36505;52.512;13.460;2023-11-19T03:35:01;100570.81;;;5.70;85.79
50550;BME280;36505;52.512;13.460;2023-11-19T03:37:26;100562.47;;;5.71;86.14
50550;BME280;36505;52.512;13.460;2023-11-19T03:39:54;100561.41;;;5.72;85.21
50550;BME280;36505;52.512;13.460;2023-11-19T03:42:20;100547.84;;;5.72;85.77
50550;BME280;36505;52.512;13.460;2023-11-19T03:44:46;100522.75;;;5.70;86.41
50550;BME280;36505;52.512;13.460;2023-11-19T03:47:11;100509.19;;;5.70;86.79
50550;BME280;36505;52.512;13.460;2023-11-19T03:49:36;100505.84;;;5.68;87.23
50550;BME280;36505;52.512;13.460;2023-11-19T03:52:02;100511.47;;;5.67;87.75
50550;BME280;36505;52.512;13.460;2023-11-19T03:54:27;100509.44;;;5.62;88.21
50550;BME280;36505;52.512;13.460;2023-11-19T03:56:53;100501.28;;;5.62;88.27
50550;BME280;36505;52.512;13.460;2023-11-19T03:59:19;100500.44;;;5.62;88.49
50550;BME280;36505;52.512;13.460;2023-11-19T04:01:45;100480.00;;;5.59;88.74
50550;BME280;36505;52.512;13.460;2023-11-19T04:04:11;100472.06;;;5.57;89.08
50550;BME280;36505;52.512;13.460;2023-11-19T04:06:36;100456.41;;;5.53;89.71
50550;BME280;36505;52.512;13.460;2023-11-19T04:09:01;100440.09;;;5.53;90.10
50550;BME280;36505;52.512;13.460;2023-11-19T04:11:27;100433.25;;;5.50;90.63
50550;BME280;36505;52.512;13.460;2023-11-19T04:13:53;100429.69;;;5.50;90.97
50550;BME280;36505;52.512;13.460;2023-11-19T04:16:18;100415.50;;;5.48;91.10
50550;BME280;36505;52.512;13.460;2023-11-19T04:18:43;100418.88;;;5.43;90.90
50550;BME280;36505;52.512;13.460;2023-11-19T04:21:09;100411.78;;;5.42;91.23
50550;BME280;36505;52.512;13.460;2023-11-19T04:23:34;100411.78;;;5.42;91.69
50550;BME280;36505;52.512;13.460;2023-11-19T04:26:03;100397.56;;;5.40;91.76
50550;BME280;36505;52.512;13.460;2023-11-19T04:28:30;100395.69;;;5.41;92.01
50550;BME280;36505;52.512;13.460;2023-11-19T04:30:55;100395.69;;;5.41;92.31
50550;BME280;36505;52.512;13.460;2023-11-19T04:33:21;100395.69;;;5.41;92.13
50550;BME280;36505;52.512;13.460;2023-11-19T04:35:46;100391.94;;;5.42;92.51
50550;BME280;36505;52.512;13.460;2023-11-19T04:38:12;100390.06;;;5.42;92.89
50550;BME280;36505;52.512;13.460;2023-11-19T04:40:37;100395.47;;;5.42;92.80
50550;BME280;36505;52.512;13.460;2023-11-19T04:43:02;100386.50;;;5.42;92.97
50550;BME280;36505;52.512;13.460;2023-11-19T04:45:28;100389.22;;;5.42;92.66
50550;BME280;36505;52.512;13.460;2023-11-19T04:47:53;100392.16;;;5.40;93.16
50550;BME280;36505;52.512;13.460;2023-11-19T04:50:19;100392.16;;;5.40;93.40
50550;BME280;36505;52.512;13.460;2023-11-19T04:52:44;100387.56;;;5.41;93.81
50550;BME280;36505;52.512;13.460;2023-11-19T04:55:10;100384.00;;;5.40;93.76
50550;BME280;36505;52.512;13.460;2023-11-19T04:57:37;100382.13;;;5.41;94.05
50550;BME280;36505;52.512;13.460;2023-11-19T05:00:03;100375.84;;;5.40;93.94
50550;BME280;36505;52.512;13.460;2023-11-19T05:02:30;100367.72;;;5.40;94.25
50550;BME280;36505;52.512;13.460;2023-11-19T05:04:55;100360.84;;;5.38;94.49
50550;BME280;36505;52.512;13.460;2023-11-19T05:07:21;100351.03;;;5.37;94.75
50550;BME280;36505;52.512;13.460;2023-11-19T05:09:46;100331.41;;;5.35;95.20
50550;BME280;36505;52.512;13.460;2023-11-19T05:12:11;100329.31;;;5.37;95.10
50550;BME280;36505;52.512;13.460;2023-11-19T05:14:37;100332.03;;;5.37;95.29
50550;BME280;36505;52.512;13.460;2023-11-19T05:17:03;100312.41;;;5.35;nan
50550;BME280;36505;52.512;13.460;2023-11-19T05:19:28;100303.22;;;5.36;95.75
50550;BME280;36505;52.512;13.460;2023-11-19T05:21:54;100283.59;;;5.34;95.67
50550;BME280;36505;52.512;13.460;2023-11-19T05:24:19;100291.75;;;5.34;96.10
50550;BME280;36505;52.512;13.460;2023-11-19T05:26:45;100271.06;;;5.33;96.18
50550;BME280;36505;52.512;13.460;2023-11-19T05:29:10;100279.22;;;5.33;96.48
50550;BME280;36505;52.512;13.460;2023-11-19T05:31:36;100282.75;;;5.33;96.68
50550;BME280;36505;52.512;13.460;2023-11-19T05:34:01;100266.72;;;5.32;97.12
50550;BME280;36505;52.512;13.460;2023-11-19T05:36:26;100272.94;;;5.32;97.08
50550;BME280;36505;52.512;13.460;2023-11-19T05:38:54;100270.25;;;5.32;97.04
50550;BME280;36505;52.512;13.460;2023-11-19T05:41:19;100261.03;;;5.33;97.16
50550;BME280;36505;52.512;13.460;2023-11-19T05:43:44;100272.94;;;5.32;97.17
50550;BME280;36505;52.512;13.460;2023-11-19T05:46:10;100270.03;;;5.34;97.52
50550;BME280;36505;52.512;13.460;2023-11-19T05:48:35;100257.06;;;5.36;97.58
50550;BME280;36505;52.512;13.460;2023-11-19T05:51:00;100248.31;;;5.34;97.74
50550;BME280;36505;52.512;13.460;2023-11-19T05:53:26;100239.31;;;5.33;97.72
50550;BME280;36505;52.512;13.460;2023-11-19T05:55:51;100226.59;;;5.34;97.76
50550;BME280;36505;52.512;13.460;2023-11-19T05:58:26;100226.59;;;5.34;98.13
50550;BME280;36505;52.512;13.460;2023-11-19T06:00:57;100229.50;;;5.32;98.27
50550;BME280;36505;52.512;13.460;2023-11-19T06:03:23;100224.69;;;5.34;98.62
50550;BME280;36505;52.512;13.460;2023-11-19T06:05:49;100210.50;;;5.32;98.67
50550;BME280;36505;52.512;13.460;2023-11-19T06:08:14;100220.72;;;5.37;99.15
50550;BME280;36505;52.512;13.460;2023-11-19T06:10:40;100212.56;;;5.37;98.80
50550;BME280;36505;52.512;13.460;2023-11-19T06:13:06;100208.63;;;5.33;98.61
50550;BME280;36505;52.512;13.460;2023-11-19T06:15:33;100226.78;;;5.39;98.83
50550;BME280;36505;52.512;13.460;2023-11-19T06:17:58;100223.81;;;5.40;99.04
50550;BME280;36505;52.512;13.460;2023-11-19T06:20:26;100212.72;;;5.42;99.08
50550;BME280;36505;52.512;13.460;2023-11-19T06:22:54;100201.03;;;5.41;99.38
50550;BME280;36505;52.512;13.460;2023-11-19T06:25:19;100193.50;;;5.43;99.32
50550;BME280;36505;52.512;13.460;2023-11-19T06:27:45;100180.75;;;5.44;99.38
50550;BME280;36505;52.512;13.460;2023-11-19T06:30:10;100179.94;;;5.43;99.55
50550;BME280;36505;52.512;13.460;2023-11-19T06:32:37;100183.47;;;5.44;99.52
50550;BME280;36505;52.512;13.460;2023-11-19T06:35:02;100174.50;;;5.43;99.23
50550;BME280;36505;52.512;13.460;2023-11-19T06:37:30;100178.88;;;5.44;99.75
50550;BME280;36505;52.512;13.460;2023-11-19T06:39:55;100166.13;;;5.45;99.96
50550;BME280;36505;52.512;13.460;2023-11-19T06:42:21;100162.34;;;5.46;99.89
50550;BME280;36505;52.512;13.460;2023-11-19T06:44:46;100164.00;;;5.47;100.00
50550;BME280;36505;52.512;13.460;2023-11-19T06:47:12;100157.75;;;5.46;100.00
50550;BME280;36505;52.512;13.460;2023-11-19T06:49:37;100149.38;;;5.48;100.00
50550;BME280;36505;52.512;13.460;2023-11-19T06:52:02;100159.41;;;5.47;100.00
50550;BME280;36505;52.512;13.460;2023-11-19T06:54:29;100160.25;;;5.48;100.00
50550;BME280;36505;52.512;13.460;2023-11-19T06:56:55;100158.13;;;5.50;100.00
50550;BME280;36505;52.512;13.460;2023-11-19T06:59:22;100155.56;;;5.55;100.00
50550;BME280;36505;52.512;13.460;2023-11-19T07:01:48;100150.13;;;5.55;100.00
50550;BME280;36505;52.512;13.460;2023-11-19T07:04:13;100154.50;;;5.56;100.00
50550;BME280;36505;52.512;13.460;2023-11-19T07:06:39;100168.09;;;5.56;100.00
50550;BME280;36505;52.512;13.460;2023-11-19T07:09:08;100155.34;;;5.56;100.00
50550;BME280;36505;52.512;13.460;2023-11-19T07:11:38;100136.56;;;5.55;100.00
50550;BME280;36505;52.512;13.460;2023-11-19T07:14:04;100144.25;;;5.58;100.00
50550;BME280;36505;52.512;13.460;2023-11-19T07:16:30;100144.25;;;5.58;100.00
50550;BME280;36505;52.512;13.460;2023-11-19T07:18:56;100146.72;;;5.60;100.00
50550;BME280;36505;52.512;13.460;2023-11-19T07:21:21;100158.22;;;5.62;100.00
50550;BME280;36505;52.512;13.460;2023-11-19T07:23:47;100161.75;;;5.62;100.00
50550;BME280;36505;52.512;13.460;2023-11-19T07:26:12;100157.97;;;5.63;100.00
50550;BME280;36505;52.512;13.460;2023-11-19T07:28:38;100152.34;;;5.65;100.00
50550;BME280;36505;52.512;13.460;2023-11-19T07:31:05;100148.78;;;5.64;100.00
50550;BME280;36505;52.512;13.460;2023-11-19T07:33:33;100144.53;;;5.68;100.00
50550;BME280;36505;52.512;13.460;2023-11-19T07:35:58;100138.06;;;5.69;100.00
50550;BME280;36505;52.512;13.460;2023-11-19T07:38:24;100124.94;;;5.66;100.00
50550;BME280;36505;52.512;13.460;2023-11-19T07:40:49;100130.75;;;5.70;100.00
50550;BME280;36505;52.512;13.460;2023-11-19T07:43:15;100136.78;;;5.72;100.00
50550;BME280;36505;52.512;13.460;2023-11-19T07:45:40;100127.59;;;5.73;100.00
50550;BME280;36505;52.512;13.460;2023-11-19T07:48:10;100139.88;;;5.75;100.00
50550;BME280;36505;52.512;13.460;2023-11-19T07:50:36;100149.69;;;5.76;100.00
50550;BME280;36505;52.512;13.460;2023-11-19T07:53:01;100138.94;;;5.81;100.00
50550;BME280;36505;52.512;13.460;2023-11-19T07:55:29;100139.56;;;5.83;100.00
50550;BME280;36505;52.512;13.460;2023-11-19T07:57:55;100135.34;;;5.87;100.00
50550;BME280;36505;52.512;13.460;2023-11-19T08:00:21;100131.34;;;5.90;100.00
50550;BME280;36505;52.512;13.460;2023-11-19T08:02:46;100130.91;;;5.93;100.00
50550;BME280;36505;52.512;13.460;2023-11-19T08:05:11;100128.78;;;5.95;100.00
50550;BME280;36505;52.512;13.460;2023-11-19T08:07:37;100139.41;;;5.97;100.00
50550;BME280;36505;52.512;13.460;2023-11-19T08:10:04;100142.53;;;6.00;100.00
50550;BME280;36505;52.512;13.460;2023-11-19T08:12:30;100126.81;;;6.02;100.00
50550;BME280;36505;52.512;13.460;2023-11-19T08:14:56;100136.63;;;6.03;100.00
50550;BME280;36505;52.512;13.460;2023-11-19T08:17:24;100137.84;;;6.07;100.00
50550;BME280;36505;52.512;13.460;2023-11-19T08:19:49;100139.25;;;6.10;100.00
50550;BME280;36505;52.512;13.460;2023-11-19T08:22:15;100135.03;;;6.14;100.00
50550;BME280;36505;52.512;13.460;2023-11-19T08:24:42;100132.66;;;6.17;100.00
50550;BME280;36505;52.512;13.460;2023-11-19T08:27:08;100120.50;;;6.20;100.00
50550;BME280;36505;52.512;13.460;2023-11-19T08:29:33;100115.41;;;6.23;100.00
50550;BME280;36505;52.512;13.460;2023-11-19T08:32:00;100108.22;;;6.29;100.00
50550;BME280;36505;52.512;13.460;2023-11-19T08:34:27;100128.69;;;6.31;100.00
50550;BME280;36505;52.512;13.460;2023-11-19T08:36:52;100122.56;;;6.36;100.00
50550;BME280;36505;52.512;13.460;2023-11-19T08:39:18;100094.91;;;6.39;100.00
50550;BME280;36505;52.512;13.460;2023-11-19T08:41:44;100090.66;;;6.43;100.00
50550;BME280;36505;52.512;13.460;2023-11-19T08:44:09;100085.59;;;6.47;100.00
50550;BME280;36505;52.512;13.460;2023-11-19T08:46:35;100095.16;;;6.49;100.00
50550;BME280;36505;52.512;13.460;2023-11-19T08:49:00;100102.03;;;6.52;100.00
50550;BME280;36505;52.512;13.460;2023-11-19T08:51:25;100098.84;;;6.55;100.00
50550;BME280;36505;52.512;13.460;2023-11-19T08:53:51;100103.81;;;6.58;100.00
50550;BME280;36505;52.512;13.460;2023-11-19T08:56:16;100100.75;;;6.66;100.00
50550;BME280;36505;52.512;13.460;2023-11-19T08:58:42;100095.81;;;6.74;100.00
50550;BME280;36505;52.512;13.460;2023-11-19T09:01:07;100077.31;;;6.77;100.00
50550;BME280;36505;52.512;13.460;2023-11-19T09:03:32;100087.63;;;6.86;100.00
50550;BME280;36505;52.512;13.460;2023-11-19T09:05:58;100097.22;;;6.89;100.00
50550;BME280;36505;52.512;13.460;2023-11-19T09:08:25;100093.78;;;6.93;100.00
50550;BME280;36505;52.512;13.460;2023-11-19T09:10:50;100092.50;;;6.96;100.00
50550;BME280;36505;52.512;13.460;2023-11-19T09:13:16;100081.72;;;7.01;100.00
50550;BME280;36505;52.512;13.460;2023-11-19T09:15:41;100096.50;;;7.05;100.00
50550;BME280;36505;52.512;13.460;2023-11-19T09:18:07;100099.00;;;7.06;100.00
50550;BME280;36505;52.512;13.460;2023-11-19T09:20:33;100099.72;;;7.13;100.00
50550;BME280;36505;52.512;13.460;2023-11-19T09:23:03;100103.38;;;7.19;100.00
50550;BME280;36505;52.512;13.460;2023-11-19T09:25:28;100108.09;;;7.24;100.00
50550;BME280;36505;52.512;13.460;2023-11-19T09:27:54;100092.47;;;7.31;100.00
50550;BME280;36505;52.512;13.460;2023-11-19T09:30:19;100091.41;;;7.32;100.00
50550;BME280;36505;52.512;13.460;2023-11-19T09:32:45;100102.16;;;7.38;100.00
50550;BME280;36505;52.512;13.460;2023-11-19T09:35:10;100093.53;;;7.41;100.00
50550;BME280;36505;52.512;13.460;2023-11-19T09:37:38;100100.59;;;7.54;100.00
50550;BME280;36505;52.512;13.460;2023-11-19T09:40:05;100085.28;;;7.65;100.00
50550;BME280;36505;52.512;13.460;2023-11-19T09:42:39;100090.13;;;7.74;100.00
50550;BME280;36505;52.512;13.460;2023-11-19T09:45:13;100081.34;;;7.84;100.00
50550;BME280;36505;52.512;13.460;2023-11-19T09:47:39;100072.59;;;7.99;100.00
50550;BME280;36505;52.512;13.460;2023-11-19T09:50:05;100079.69;;;8.28;100.00
50550;BME280;36505;52.512;13.460;2023-11-19T09:52:31;100070.78;;;8.32;100.00
50550;BME280;36505;52.512;13.460;2023-11-19T09:54:56;100077.59;;;8.47;100.00
50550;BME280;36505;52.512;13.460;2023-11-19T09:57:22;100070.25;;;8.64;100.00
50550;BME280;36505;52.512;13.460;2023-11-19T09:59:48;100061.72;;;8.94;100.00
50550;BME280;36505;52.512;13.460;2023-11-19T10:02:16;100057.03;;;9.28;100.00
50550;BME280;36505;52.512;13.460;2023-11-19T10:04:42;100062.47;;;9.49;100.00
50550;BME280;36505;52.512;13.460;2023-11-19T10:07:10;100065.81;;;9.51;100.00
50550;BME280;36505;52.512;13.460;2023-11-19T10:09:35;100067.41;;;9.47;100.00
50550;BME280;36505;52.512;13.460;2023-11-19T10:12:01;100064.34;;;9.44;100.00
50550;BME280;36505;52.512;13.460;2023-11-19T10:14:28;100065.16;;;9.44;100.00
50550;BME280;36505;52.512;13.460;2023-11-19T10:16:54;100061.84;;;9.42;100.00
50550;BME280;36505;52.512;13.460;2023-11-19T10:19:21;100057.78;;;9.45;100.00
50550;BME280;36505;52.512;13.460;2023-11-19T10:21:46;100051.88;;;9.53;100.00
50550;BME280;36505;52.512;13.460;2023-11-19T10:24:12;100058.94;;;9.71;100.00
50550;BME280;36505;52.512;13.460;2023-11-19T10:26:37;100057.16;;;9.81;100.00
50550;BME280;36505;52.512;13.460;2023-11-19T10:29:02;100057.69;;;9.83;100.00
50550;BME280;36505;52.512;13.460;2023-11-19T10:31:29;100052.00;;;9.85;100.00
50550;BME280;36505;52.512;13.460;2023-11-19T10:33:54;100047.59;;;9.84;100.00
50550;BME280;36505;52.512;13.460;2023-11-19T10:36:20;100041.28;;;9.83;100.00
50550;BME280;36505;52.512;13.460;2023-11-19T10:38:56;100025.88;;;9.99;100.00
50550;BME280;36505;52.512;13.460;2023-11-19T10:41:32;100035.72;;;10.22;100.00
50550;BME280;36505;52.512;13.460;2023-11-19T10:43:58;100030.19;;;10.44;100.00
50550;BME280;36505;52.512;13.460;2023-11-19T10:46:36;100025.28;;;10.51;100.00
50550;BME280;36505;52.512;13.460;2023-11-19T10:49:01;100024.53;;;10.55;100.00
50550;BME280;36505;52.512;13.460;2023-11-19T10:51:28;100027.88;;;10.62;100.00
50550;BME280;36505;52.512;13.460;2023-11-19T10:54:04;100017.78;;;10.68;100.00
50550;BME280;36505;52.512;13.460;2023-11-19T10:56:32;100025.19;;;10.73;100.00
50550;BME280;36505;52.512;13.460;2023-11-19T10:58:59;100020.03;;;10.76;100.00
50550;BME280;36505;52.512;13.460;2023-11-19T11:01:27;100018.16;;;10.82;100.00
50550;BME280;36505;52.512;13.460;2023-11-19T11:03:59;100014.31;;;10.83;100.00
50550;BME280;36505;52.512;13.460;2023-11-19T11:06:26;100022.88;;;10.91;100.00
50550;BME280;36505;52.512;13.460;2023-11-19T11:08:53;100022.56;;;10.88;100.00
50550;BME280;36505;52.512;13.460;2023-11-19T11:11:19;100024.19;;;10.84;100.00
50550;BME280;36505;52.512;13.460;2023-11-19T11:13:50;100017.03;;;10.78;100.00
50550;BME280;36505;52.512;13.460;2023-11-19T11:16:18;100019.72;;;10.73;100.00
50550;BME280;36505;52.512;13.460;2023-11-19T11:18:46;100003.81;;;10.69;100.00
50550;BME280;36505;52.512;13.460;2023-11-19T11:21:17;100013.38;;;10.67;100.00
50550;BME280;36505;52.512;13.460;2023-11-19T11:29:05;100014.69;;;10.59;100.00
50550;BME280;36505;52.512;13.460;2023-11-19T11:34:44;100027.78;;;10.52;100.00
50550;BME280;36505;52.512;13.460;2023-11-19T11:37:32;100021.75;;;10.50;100.00
50550;BME280;36505;52.512;13.460;2023-11-19T11:39:58;100021.19;;;10.48;100.00
50550;BME280;36505;52.512;13.460;2023-11-19T11:45:04;100016.28;;;10.50;100.00
50550;BME280;36505;52.512;13.460;2023-11-19T11:50:09;100014.09;;;10.52;100.00
50550;BME280;36505;52.512;13.460;2023-11-19T11:57:54;100009.81;;;10.66;100.00
50550;BME280;36505;52.512;13.460;2023-11-19T12:00:26;100006.31;;;10.71;100.00
50550;BME280;36505;52.512;13.460;2023-11-19T12:02:51;99996.16;;;10.72;100.00
50550;BME280;36505;52.512;13.460;2023-11-19T12:05:17;100003.84;;;10.75;100.00
50550;BME280;36505;52.512;13.460;2023-11-19T12:07:54;100005.75;;;10.74;100.00
50550;BME280;36505;52.512;13.460;2023-11-19T12:10:20;100005.50;;;10.76;100.00
50550;BME280;36505;52.512;13.460;2023-11-19T12:12:47;99998.63;;;10.73;100.00
50550;BME280;36505;52.512;13.460;2023-11-19T12:15:12;100013.16;;;10.74;100.00
50550;BME280;36505;52.512;13.460;2023-11-19T12:17:46;100010.97;;;10.71;100.00
50550;BME280;36505;52.512;13.460;2023-11-19T12:20:15;100013.94;;;10.69;100.00
50550;BME280;36505;52.512;13.460;2023-11-19T12:22:42;100012.31;;;10.68;100.00
50550;BME280;36505;52.512;13.460;2023-11-19T12:25:09;100010.06;;;10.65;100.00
50550;BME280;36505;52.512;13.460;2023-11-19T12:27:46;100009.25;;;10.64;100.00
50550;BME280;36505;52.512;13.460;2023-11-19T12:30:12;100002.69;;;10.65;100.00
50550;BME280;36505;52.512;13.460;2023-11-19T12:32:45;100011.19;;;10.64;100.00
50550;BME280;36505;52.512;13.460;2023-11-19T12:35:11;100004.06;;;10.63;100.00
50550;BME280;36505;52.512;13.460;2023-11-19T12:37:48;100000.50;;;10.62;100.00
50550;BME280;36505;52.512;13.460;2023-11-19T12:42:40;100010.88;;;10.60;100.00
50550;BME280;36505;52.512;13.460;2023-11-19T12:45:06;100003.75;;;10.59;100.00
50550;BME280;36505;52.512;13.460;2023-11-19T12:47:33;99996.59;;;10.58;100.00
50550;BME280;36505;52.512;13.460;2023-11-19T12:49:58;100007.03;;;10.56;100.00
50550;BME280;36505;52.512;13.460;2023-11-19T12:52:24;100001.78;;;10.55;100.00
50550;BME280;36505;52.512;13.460;2023-11-19T12:54:50;100009.69;;;10.51;100.00
50550;BME280;36505;52.512;13.460;2023-11-19T12:57:16;100010.50;;;10.47;100.00
50550;BME280;36505;52.512;13.460;2023-11-19T12:59:54;100012.72;;;10.50;100.00
50550;BME280;36505;52.512;13.460;2023-11-19T13:02:20;100023.13;;;10.53;100.00